キンシャサ の空港の天気 - METARとTAF

キンシャサ/ヌジリ国際空港 ( FZAA / FIH ) - コンゴ民主共和国 キンシャサ
飛行場実況気象(Metar)
観測時間10/16 08:00 WAT (10/16 07:00 UTC)
風向・風速南西 2m/s
視程7000m
天気現象
少しの雲 雲底高度 490m
全天の8割程度の雲 雲底高度 2440m
気温23℃
湿度89%
気圧1015hPa
METARFZAA 160700Z 22004KT 7000 FEW016 BKN080 23/21 Q1015 NOSIG
過去の天気等 Google飛行場航空写真 Wunderground天気予報

過去48時間のMETAR

飛行場予報(TAF)
発表時間: 10/16 06:00 WAT (10/16 05:00 UTC)
予報対象時間: 16日7時 WAT ~ 17日13時 WAT
風向・風速西南西 2m/s
視程7000m
全天の4割程度の雲 雲底高度 490m
16日12時 WAT ~ 16日14時 WAT に徐々に
風向・風速北西 6m/s
全天の4割程度の雲 雲底高度 730m
少しの積乱雲 雲底高度 910m
16日17時 WAT ~ 16日21時 WAT に 確率 30% で一時的に
天気現象
17日0時 WAT ~ 17日2時 WAT に徐々に
風向・風速南西 2m/s
全天の8割程度の雲 雲底高度 490m
TAF FZAA 160500Z 1606/1712 24004KT 7000 SCT016
BECMG 1611/1613 32012KT SCT024 FEW030CB
PROB30 TEMPO 1616/1620 TS
BECMG 1623/1701 23004KT BKN016